sensor_id;sensor_type;location;lat;lon;timestamp;pressure;altitude;pressure_sealevel;temperature;humidity
21900;BME280;11114;50.658;12.704;2024-02-21T17:03:28;95753.47;;;5.05;59.31
21900;BME280;11114;50.658;12.704;2024-02-21T17:06:15;95753.81;;;5.10;60.15
21900;BME280;11114;50.658;12.704;2024-02-21T17:09:04;95747.34;;;5.22;61.01
21900;BME280;11114;50.658;12.704;2024-02-21T17:11:50;95745.94;;;5.35;60.62
21900;BME280;11114;50.658;12.704;2024-02-21T17:14:39;95748.44;;;5.45;60.72
21900;BME280;11114;50.658;12.704;2024-02-21T17:17:26;95740.16;;;5.49;60.32
21900;BME280;11114;50.658;12.704;2024-02-21T17:20:13;95739.34;;;5.56;58.72
21900;BME280;11114;50.658;12.704;2024-02-21T17:23:00;95736.13;;;5.62;58.79
21900;BME280;11114;50.658;12.704;2024-02-21T17:25:46;95731.53;;;5.64;58.65
21900;BME280;11114;50.658;12.704;2024-02-21T17:28:34;95724.56;;;5.65;57.62
21900;BME280;11114;50.658;12.704;2024-02-21T17:31:23;95719.69;;;5.70;58.57
21900;BME280;11114;50.658;12.704;2024-02-21T17:34:10;95710.22;;;5.69;57.90
21900;BME280;11114;50.658;12.704;2024-02-21T17:36:56;95706.84;;;5.68;58.18
21900;BME280;11114;50.658;12.704;2024-02-21T17:39:43;95701.75;;;5.67;58.33
21900;BME280;11114;50.658;12.704;2024-02-21T17:42:32;95691.34;;;5.67;57.88
21900;BME280;11114;50.658;12.704;2024-02-21T17:45:21;95695.09;;;5.64;57.57
21900;BME280;11114;50.658;12.704;2024-02-21T17:48:09;95679.16;;;5.59;57.65
21900;BME280;11114;50.658;12.704;2024-02-21T17:50:56;95682.72;;;5.58;57.82
21900;BME280;11114;50.658;12.704;2024-02-21T17:53:43;95673.59;;;5.54;57.32
21900;BME280;11114;50.658;12.704;2024-02-21T17:56:29;95673.09;;;5.51;55.93
21900;BME280;11114;50.658;12.704;2024-02-21T17:59:16;95661.56;;;5.53;57.51
21900;BME280;11114;50.658;12.704;2024-02-21T18:02:05;95657.66;;;5.49;57.52
21900;BME280;11114;50.658;12.704;2024-02-21T18:04:52;95659.28;;;5.50;57.56
21900;BME280;11114;50.658;12.704;2024-02-21T18:07:40;95654.56;;;5.54;57.27
21900;BME280;11114;50.658;12.704;2024-02-21T18:10:27;95645.97;;;5.53;57.86
21900;BME280;11114;50.658;12.704;2024-02-21T18:13:17;95649.03;;;5.49;58.10
21900;BME280;11114;50.658;12.704;2024-02-21T18:16:06;95632.59;;;5.48;57.80
21900;BME280;11114;50.658;12.704;2024-02-21T18:18:54;95618.91;;;5.47;57.96
21900;BME280;11114;50.658;12.704;2024-02-21T18:21:41;95618.13;;;5.46;58.16
21900;BME280;11114;50.658;12.704;2024-02-21T18:24:27;95611.09;;;5.47;58.38
21900;BME280;11114;50.658;12.704;2024-02-21T18:27:15;95607.38;;;5.49;57.70
21900;BME280;11114;50.658;12.704;2024-02-21T18:30:02;95598.44;;;5.51;57.93
21900;BME280;11114;50.658;12.704;2024-02-21T18:32:49;95605.28;;;5.52;57.21
21900;BME280;11114;50.658;12.704;2024-02-21T18:35:38;95606.56;;;5.56;57.00
21900;BME280;11114;50.658;12.704;2024-02-21T18:38:27;95615.69;;;5.60;57.16
21900;BME280;11114;50.658;12.704;2024-02-21T18:41:13;95610.97;;;5.64;56.78
21900;BME280;11114;50.658;12.704;2024-02-21T18:43:59;95608.53;;;5.62;56.99
21900;BME280;11114;50.658;12.704;2024-02-21T18:46:47;95614.06;;;5.59;56.92
21900;BME280;11114;50.658;12.704;2024-02-21T18:49:35;95611.78;;;5.64;56.98
21900;BME280;11114;50.658;12.704;2024-02-21T18:52:38;95615.69;;;5.60;57.67
21900;BME280;11114;50.658;12.704;2024-02-21T18:55:32;95604.44;;;5.60;57.57
21900;BME280;11114;50.658;12.704;2024-02-21T18:58:22;95600.06;;;5.60;58.03
21900;BME280;11114;50.658;12.704;2024-02-21T19:01:09;95601.22;;;5.58;57.67
21900;BME280;11114;50.658;12.704;2024-02-21T19:03:56;95595.84;;;5.59;57.82
21900;BME280;11114;50.658;12.704;2024-02-21T19:06:42;95592.75;;;5.56;57.53
21900;BME280;11114;50.658;12.704;2024-02-21T19:09:31;95603.00;;;5.57;56.78
21900;BME280;11114;50.658;12.704;2024-02-21T19:12:18;95611.78;;;5.64;56.85
21900;BME280;11114;50.658;12.704;2024-02-21T19:15:05;95591.91;;;5.71;57.05
21900;BME280;11114;50.658;12.704;2024-02-21T19:17:51;95582.16;;;5.73;56.24
21900;BME280;11114;50.658;12.704;2024-02-21T19:20:38;95591.28;;;5.77;57.17
21900;BME280;11114;50.658;12.704;2024-02-21T19:23:27;95582.13;;;5.81;56.77
21900;BME280;11114;50.658;12.704;2024-02-21T19:26:15;95584.25;;;5.86;57.21
21900;BME280;11114;50.658;12.704;2024-02-21T19:29:02;95581.34;;;5.89;57.11
21900;BME280;11114;50.658;12.704;2024-02-21T19:31:49;95586.72;;;5.95;57.67
21900;BME280;11114;50.658;12.704;2024-02-21T19:34:36;95580.66;;;6.03;57.96
21900;BME280;11114;50.658;12.704;2024-02-21T19:37:28;95569.91;;;6.06;57.16
21900;BME280;11114;50.658;12.704;2024-02-21T19:40:17;95568.28;;;6.05;57.58
21900;BME280;11114;50.658;12.704;2024-02-21T19:43:04;95553.97;;;6.01;56.47
21900;BME280;11114;50.658;12.704;2024-02-21T19:45:50;95538.66;;;5.98;55.93
21900;BME280;11114;50.658;12.704;2024-02-21T19:48:38;95538.84;;;5.96;54.89
21900;BME280;11114;50.658;12.704;2024-02-21T19:51:24;95536.84;;;5.98;55.26
21900;BME280;11114;50.658;12.704;2024-02-21T19:54:10;95532.78;;;5.96;54.37
21900;BME280;11114;50.658;12.704;2024-02-21T19:57:10;95530.66;;;5.99;53.83
21900;BME280;11114;50.658;12.704;2024-02-21T19:59:59;95516.34;;;6.03;53.91
21900;BME280;11114;50.658;12.704;2024-02-21T20:02:45;95520.25;;;5.99;53.24
21900;BME280;11114;50.658;12.704;2024-02-21T20:05:33;95507.56;;;5.96;53.40
21900;BME280;11114;50.658;12.704;2024-02-21T20:08:20;95514.06;;;6.00;53.40
21900;BME280;11114;50.658;12.704;2024-02-21T20:11:09;95513.41;;;5.98;52.70
21900;BME280;11114;50.658;12.704;2024-02-21T20:13:55;95499.75;;;5.96;52.62
21900;BME280;11114;50.658;12.704;2024-02-21T20:16:43;95486.88;;;5.95;53.04
21900;BME280;11114;50.658;12.704;2024-02-21T20:19:33;95486.56;;;5.98;53.29
21900;BME280;11114;50.658;12.704;2024-02-21T20:22:21;95483.63;;;6.01;52.64
21900;BME280;11114;50.658;12.704;2024-02-21T20:25:08;95478.41;;;6.01;52.90
21900;BME280;11114;50.658;12.704;2024-02-21T20:27:55;95470.75;;;5.99;52.57
21900;BME280;11114;50.658;12.704;2024-02-21T20:30:41;95463.91;;;5.98;52.79
21900;BME280;11114;50.658;12.704;2024-02-21T20:33:29;95468.50;;;5.96;53.04
21900;BME280;11114;50.658;12.704;2024-02-21T20:36:15;95469.13;;;5.98;53.38
21900;BME280;11114;50.658;12.704;2024-02-21T20:39:03;95456.94;;;5.99;52.97
21900;BME280;11114;50.658;12.704;2024-02-21T20:41:49;95454.31;;;5.99;52.82
21900;BME280;11114;50.658;12.704;2024-02-21T20:44:37;95455.13;;;5.99;52.77
21900;BME280;11114;50.658;12.704;2024-02-21T20:47:23;95463.91;;;5.98;52.15
21900;BME280;11114;50.658;12.704;2024-02-21T20:50:11;95455.78;;;6.01;51.21
21900;BME280;11114;50.658;12.704;2024-02-21T20:52:57;95448.59;;;6.03;51.47
21900;BME280;11114;50.658;12.704;2024-02-21T20:55:44;95446.66;;;6.05;51.17
21900;BME280;11114;50.658;12.704;2024-02-21T20:58:32;95437.69;;;6.08;52.28
21900;BME280;11114;50.658;12.704;2024-02-21T21:01:19;95443.41;;;6.03;52.49
21900;BME280;11114;50.658;12.704;2024-02-21T21:04:05;95427.13;;;6.01;52.74
21900;BME280;11114;50.658;12.704;2024-02-21T21:06:52;95438.50;;;6.00;52.33
21900;BME280;11114;50.658;12.704;2024-02-21T21:09:39;95429.91;;;6.00;51.64
21900;BME280;11114;50.658;12.704;2024-02-21T21:12:27;95431.16;;;6.04;51.99
21900;BME280;11114;50.658;12.704;2024-02-21T21:15:15;95419.31;;;6.01;51.41
21900;BME280;11114;50.658;12.704;2024-02-21T21:18:01;95426.78;;;6.04;51.54
